Etusivu
METAR-TAF:

METAR-TAF

Lentoasemat :

Normanton, Australia

Leveyspiiri: 17-41-06S, Pituuspiiri: 141-04-12E, korkeus merenpinnasta: 22 m

Tämänhetkinen sää

Tämä raportti tehtiin 33 minuuttia sitten, kello 07.00 UTC
Tuuli 9 kn luoteesta
Lämpötila 34°C
Kosteus 44%
Ilmanpaine 1007 hPa
Näkyvyys 10 km tai enemmän
Hajanaisia pilviä 5700 ft:n korkeudessa
Hajonneita pilviä 7500 ft:n korkeudessa

METAR: YNTN 020700Z AUTO 31009KT 9999 // SCT057 BKN075 34/20 Q1007

Aika: 17:33 (07:33 UTC)


TAF: puuttuu

Säähavainnot ja -ennusteet yli 4000 lentoasemalta (METAR- ja TAF-raportit).

Käytössä olevat sääasemat on merkitty karttaan keltaisilla ja punaisilla pisteillä.

Aseta hiiri pisteen päälle nähdäksesi sääaseman nimen.

Klikkaa sitten nähdäksesi säähavainnot ja -ennusteet.

Kartan vaihtaminen: klikkaa mustalla rastilla varustettuja vihreitä pisteitä, niin voit zoomata sisään; viivalla varustettua vihreää pistettä, niin voit zoomata ulos tai vihreitä nuolia, niin pääset viereisille kartoille.


METAR-TAF: